Terminal Aerodrome Forecast
Issued by NWS Austin/San Antonio, TX

Home | Current Version | Previous Version | Text Only | Print | Product List | Glossary On
Versions: 1 2 3 4 5 6 7 8 9 10 11 12 13 14 15 16 17 18 19 20 21 22 23 24 25 26 27
691
FTUS44 KEWX 040822 AAA
TAFDRT
TAF AMD
KDRT 040822Z 0408/0506 34005KT P6SM OVC010
     FM041100 34005KT P6SM VCSH OVC008
     FM041600 34005KT 5SM -RA BR OVC005=

USA.gov is the U.S. government's official web portal to all federal, state and local government web resources and services.